KGLW

Glasgow Municipal Airport

Glasgow, Kentucky, USA
METAR KGLW 140415Z AUTO 35008KT 10SM BKN014 BKN018 OVC025 01/M01 A3044 RMK AO2 T00051012
Observed Flight Rules
Nov-14 @ 04:15 UTC (33 minutes ago) Marginal Visual Flight Rules
Wind Visibility Clouds
350° at 8 knots 10 miles
  • Broken at 1,400' AGL
  • Broken at 1,800' AGL
  • Overcast at 2,500' AGL
Temperatures Readings
Current 1°C / 34°F
Dewpoint -1°C / 30°F
Humidity 87%
Altimeter 30.44" Hg
Pressure 1031 hPa
Elevation 218
METAR KGLW 140415Z AUTO 35008KT 10SM BKN014 BKN018 OVC025 01/M01 A3044 RMK AO2 T00051012
Observed Flight Rules
Nov-14 @ 04:15 UTC
(33 minutes ago)
MVFR
Wind Visibility
350° at 8 knots 10 miles
Clouds
  • Broken at 1,400' AGL
  • Broken at 1,800' AGL
  • Overcast at 2,500' AGL
Temperature Dewpoint
1°C / 34°F -1°C / 30°F
Humidity Altimeter Pressure
87% 30.44" Hg 1031 hPa